Anatife — FGE8389 — position and weather

sailwx.info

Track history (hours):
 
Tides and Currents Weather Stations Pressure Air Temp Water Temp Dewpoint Dewpoint Depression Visibility Wind Speed Wind Dir Waves Ship Positions

Anatife

Last reported at 2017-Sep-16 14:52 UTC. Time now 2017-Sep-22 04:49 UTC.
Position N 47°18' W 002°05'.

Length 41 m; draft 2 m.

Type: Tanker. MMSI: 227681520.

Date/timePositionNaut miles runAvg speedWind from/ knotsBaromVisibWave heightAir tempDewpointWater temp
2017-Sep-16 14:52N 47°18' W 002°05'0 0.0
2017-Sep-16 14:30N 47°18' W 002°05'0 0.0
2017-Sep-16 14:00N 47°18' W 002°05'0 0.0
2017-Sep-16 13:30N 47°18' W 002°05'0 0.0
2017-Sep-16 13:00N 47°18' W 002°05'0 0.0
2017-Sep-16 12:30N 47°18' W 002°05'0 0.0
2017-Sep-16 12:00N 47°18' W 002°05'0 0.0
2017-Sep-16 11:30N 47°18' W 002°05'0 0.0
2017-Sep-16 11:00N 47°18' W 002°05'0 0.0
2017-Sep-16 10:30N 47°18' W 002°05'0 0.0
2017-Sep-16 10:00N 47°18' W 002°05'0 0.0
2017-Sep-16 09:30N 47°18' W 002°05'0 0.0
2017-Sep-16 09:00N 47°18' W 002°05'0 0.0
2017-Sep-16 08:30N 47°18' W 002°05'0 0.0
2017-Sep-16 08:00N 47°18' W 002°05'0 0.0
2017-Sep-16 07:30N 47°18' W 002°05'0 0.0
2017-Sep-16 07:00N 47°18' W 002°05'0 0.0
2017-Sep-16 06:30N 47°18' W 002°05'0 0.0
2017-Sep-16 06:00N 47°18' W 002°05'0 0.0
2017-Sep-16 05:30N 47°18' W 002°05'0 0.0
2017-Sep-16 05:00N 47°18' W 002°05'0 0.0
2017-Sep-16 04:30N 47°18' W 002°05'0 0.0
2017-Sep-16 04:00N 47°18' W 002°05'2 4.8
2017-Sep-16 03:30N 47°18' W 002°08'4 8.1
2017-Sep-16 03:00N 47°15' W 002°13'4 8.6
2017-Sep-16 02:30N 47°13' W 002°18'5 9.5
2017-Sep-16 02:00N 47°13' W 002°25'810.1
2017-Sep-16 01:12N 47°14' W 002°37'310.2
2017-Sep-16 00:57N 47°15' W 002°40'510.3
2017-Sep-16 00:30N 47°16' W 002°47'510.4
2017-Sep-16 00:00N 47°18' W 002°54'510.5
2017-Sep-15 23:30N 47°20' W 003°01'510.4
2017-Sep-15 23:00N 47°21' W 003°09'0 0.0
2017-Sep-15 12:26N 47°21' W 003°09'0 0.9
2017-Sep-15 12:01N 47°21' W 003°09'1 1.1
2017-Sep-15 11:31N 47°21' W 003°08'1 1.2
2017-Sep-15 11:00N 47°20' W 003°08'0 1.0
2017-Sep-15 10:31N 47°20' W 003°07'2 3.7
2017-Sep-15 10:01N 47°20' W 003°04'2 4.2
2017-Sep-15 09:31N 47°19' W 003°01'3 6.0
2017-Sep-15 09:00N 47°18' W 002°57'3 6.3
2017-Sep-15 08:31N 47°17' W 002°53'3 6.3
2017-Sep-15 08:01N 47°16' W 002°48'4 7.7
2017-Sep-15 07:30N 47°15' W 002°43'4 9.1
2017-Sep-15 07:01N 47°14' W 002°36'4 8.8
2017-Sep-15 06:30N 47°14' W 002°30'5 9.1
2017-Sep-15 06:01N 47°13' W 002°23'5 9.1
2017-Sep-15 05:30N 47°13' W 002°17'510.8
2017-Sep-15 05:00N 47°17' W 002°11'4 8.6
2017-Sep-15 04:30N 47°18' W 002°05'0 0.0
2017-Sep-15 04:00N 47°18' W 002°05'0 0.0
2017-Sep-15 03:31N 47°18' W 002°05'0 0.0
2017-Sep-15 03:01N 47°18' W 002°05'0 0.0
2017-Sep-15 02:31N 47°18' W 002°05'0 0.0
2017-Sep-15 02:01N 47°18' W 002°05'0 0.0
2017-Sep-15 01:31N 47°18' W 002°05'0 0.0
2017-Sep-15 01:01N 47°18' W 002°05'0 0.0
2017-Sep-15 00:31N 47°18' W 002°05'0 0.0
2017-Sep-15 00:00N 47°18' W 002°05'0 0.0
2017-Sep-14 23:31N 47°18' W 002°05'0 0.0
2017-Sep-14 23:00N 47°18' W 002°05'0 0.0
2017-Sep-14 22:30N 47°18' W 002°05'0 0.0
2017-Sep-14 22:00N 47°18' W 002°05'0 0.0
2017-Sep-14 21:30N 47°18' W 002°05'0 0.0
2017-Sep-14 21:01N 47°18' W 002°05'0 0.0
2017-Sep-14 20:30N 47°18' W 002°05'0 0.0
2017-Sep-14 20:00N 47°18' W 002°05'0 0.0
2017-Sep-14 19:29N 47°18' W 002°05'0 0.0
2017-Sep-14 19:00N 47°18' W 002°05'0 0.0
2017-Sep-14 18:31N 47°18' W 002°05'0 0.0
2017-Sep-14 18:01N 47°18' W 002°05'  
2017-Sep-08 17:23N 47°18' W 002°05'5 7.7
2017-Sep-08 16:42N 47°16' W 002°12'210.9
2017-Sep-08 16:31N 47°15' W 002°14'510.4
2017-Sep-08 16:00N 47°10' W 002°18'510.2
2017-Sep-08 15:29N 47°06' W 002°23'510.5
2017-Sep-08 15:00N 47°02' W 002°28'610.2
2017-Sep-08 14:27N 46°57' W 002°29'12 0.5
2017-Sep-07 15:58N 47°07' W 002°21'4 8.7
2017-Sep-07 15:29N 47°11' W 002°18'4 8.3
2017-Sep-07 15:00N 47°14' W 002°15'4 7.1
2017-Sep-07 14:30N 47°16' W 002°11'3 6.5
2017-Sep-07 14:01N 47°18' W 002°07'1 3.0
2017-Sep-07 13:31N 47°18' W 002°05'0 0.0
2017-Sep-07 13:00N 47°18' W 002°05'  
Track history (hours):
 
Tides and Currents Weather Stations Pressure Air Temp Water Temp Dewpoint Dewpoint Depression Visibility Wind Speed Wind Dir Waves Ship Positions

Anatife

Last reported at 2017-Sep-16 14:52 UTC. Time now 2017-Sep-22 04:49 UTC.
Position N 47°18' W 002°05'.

Length 41 m; draft 2 m.

Type: Tanker. MMSI: 227681520.

Date/timePositionNaut miles runAvg speedWind from/ knotsBaromVisibWave heightAir tempDewpointWater temp
2017-Sep-16 14:52N 47°18' W 002°05'0 0.0
2017-Sep-16 14:30N 47°18' W 002°05'0 0.0
2017-Sep-16 14:00N 47°18' W 002°05'0 0.0
2017-Sep-16 13:30N 47°18' W 002°05'0 0.0
2017-Sep-16 13:00N 47°18' W 002°05'0 0.0
2017-Sep-16 12:30N 47°18' W 002°05'0 0.0
2017-Sep-16 12:00N 47°18' W 002°05'0 0.0
2017-Sep-16 11:30N 47°18' W 002°05'0 0.0
2017-Sep-16 11:00N 47°18' W 002°05'0 0.0
2017-Sep-16 10:30N 47°18' W 002°05'0 0.0
2017-Sep-16 10:00N 47°18' W 002°05'0 0.0
2017-Sep-16 09:30N 47°18' W 002°05'0 0.0
2017-Sep-16 09:00N 47°18' W 002°05'0 0.0
2017-Sep-16 08:30N 47°18' W 002°05'0 0.0
2017-Sep-16 08:00N 47°18' W 002°05'0 0.0
2017-Sep-16 07:30N 47°18' W 002°05'0 0.0
2017-Sep-16 07:00N 47°18' W 002°05'0 0.0
2017-Sep-16 06:30N 47°18' W 002°05'0 0.0
2017-Sep-16 06:00N 47°18' W 002°05'0 0.0
2017-Sep-16 05:30N 47°18' W 002°05'0 0.0
2017-Sep-16 05:00N 47°18' W 002°05'0 0.0
2017-Sep-16 04:30N 47°18' W 002°05'0 0.0
2017-Sep-16 04:00N 47°18' W 002°05'2 4.8
2017-Sep-16 03:30N 47°18' W 002°08'4 8.1
2017-Sep-16 03:00N 47°15' W 002°13'4 8.6
2017-Sep-16 02:30N 47°13' W 002°18'5 9.5
2017-Sep-16 02:00N 47°13' W 002°25'810.1
2017-Sep-16 01:12N 47°14' W 002°37'310.2
2017-Sep-16 00:57N 47°15' W 002°40'510.3
2017-Sep-16 00:30N 47°16' W 002°47'510.4
2017-Sep-16 00:00N 47°18' W 002°54'510.5
2017-Sep-15 23:30N 47°20' W 003°01'510.4
2017-Sep-15 23:00N 47°21' W 003°09'0 0.0
2017-Sep-15 12:26N 47°21' W 003°09'0 0.9
2017-Sep-15 12:01N 47°21' W 003°09'1 1.1
2017-Sep-15 11:31N 47°21' W 003°08'1 1.2
2017-Sep-15 11:00N 47°20' W 003°08'0 1.0
2017-Sep-15 10:31N 47°20' W 003°07'2 3.7
2017-Sep-15 10:01N 47°20' W 003°04'2 4.2
2017-Sep-15 09:31N 47°19' W 003°01'3 6.0
2017-Sep-15 09:00N 47°18' W 002°57'3 6.3
2017-Sep-15 08:31N 47°17' W 002°53'3 6.3
2017-Sep-15 08:01N 47°16' W 002°48'4 7.7
2017-Sep-15 07:30N 47°15' W 002°43'4 9.1
2017-Sep-15 07:01N 47°14' W 002°36'4 8.8
2017-Sep-15 06:30N 47°14' W 002°30'5 9.1
2017-Sep-15 06:01N 47°13' W 002°23'5 9.1
2017-Sep-15 05:30N 47°13' W 002°17'510.8
2017-Sep-15 05:00N 47°17' W 002°11'4 8.6
2017-Sep-15 04:30N 47°18' W 002°05'0 0.0
2017-Sep-15 04:00N 47°18' W 002°05'0 0.0
2017-Sep-15 03:31N 47°18' W 002°05'0 0.0
2017-Sep-15 03:01N 47°18' W 002°05'0 0.0
2017-Sep-15 02:31N 47°18' W 002°05'0 0.0
2017-Sep-15 02:01N 47°18' W 002°05'0 0.0
2017-Sep-15 01:31N 47°18' W 002°05'0 0.0
2017-Sep-15 01:01N 47°18' W 002°05'0 0.0
2017-Sep-15 00:31N 47°18' W 002°05'0 0.0
2017-Sep-15 00:00N 47°18' W 002°05'0 0.0
2017-Sep-14 23:31N 47°18' W 002°05'0 0.0
2017-Sep-14 23:00N 47°18' W 002°05'0 0.0
2017-Sep-14 22:30N 47°18' W 002°05'0 0.0
2017-Sep-14 22:00N 47°18' W 002°05'0 0.0
2017-Sep-14 21:30N 47°18' W 002°05'0 0.0
2017-Sep-14 21:01N 47°18' W 002°05'0 0.0
2017-Sep-14 20:30N 47°18' W 002°05'0 0.0
2017-Sep-14 20:00N 47°18' W 002°05'0 0.0
2017-Sep-14 19:29N 47°18' W 002°05'0 0.0
2017-Sep-14 19:00N 47°18' W 002°05'0 0.0
2017-Sep-14 18:31N 47°18' W 002°05'0 0.0
2017-Sep-14 18:01N 47°18' W 002°05'  
2017-Sep-08 17:23N 47°18' W 002°05'5 7.7
2017-Sep-08 16:42N 47°16' W 002°12'210.9
2017-Sep-08 16:31N 47°15' W 002°14'510.4
2017-Sep-08 16:00N 47°10' W 002°18'510.2
2017-Sep-08 15:29N 47°06' W 002°23'510.5
2017-Sep-08 15:00N 47°02' W 002°28'610.2
2017-Sep-08 14:27N 46°57' W 002°29'12 0.5
2017-Sep-07 15:58N 47°07' W 002°21'4 8.7
2017-Sep-07 15:29N 47°11' W 002°18'4 8.3
2017-Sep-07 15:00N 47°14' W 002°15'4 7.1
2017-Sep-07 14:30N 47°16' W 002°11'3 6.5
2017-Sep-07 14:01N 47°18' W 002°07'1 3.0
2017-Sep-07 13:31N 47°18' W 002°05'0 0.0
2017-Sep-07 13:00N 47°18' W 002°05'  

Dump ship's entire track history